Time;durP1;ratioP1;P1;durP2;ratioP2;P2;SDS_P1;SDS_P2;PMS_P1;PMS_P2;Temp;Humidity;BMP_temperature;BMP_pressure;BME280_temperature;BME280_humidity;BME280_pressure;Samples;Min_cycle;Max_cycle;Signal;HPM_P1;HPM_P2
2021/12/31 00:00:09;;;;;;;6.90;4.15;;;14.60;99.90;;;;;;5047296;28;20040;-43
2021/12/31 00:02:34;;;;;;;5.32;3.80;;;14.60;99.90;;;;;;5046281;28;20020;-44
2021/12/31 00:05:00;;;;;;;6.85;4.22;;;14.60;99.90;;;;;;5047678;28;20032;-44
2021/12/31 00:07:26;;;;;;;9.35;3.63;;;14.60;99.90;;;;;;5046329;28;20025;-44
2021/12/31 00:09:52;;;;;;;7.72;3.90;;;14.60;99.90;;;;;;5047497;28;20028;-44
2021/12/31 00:12:17;;;;;;;7.10;3.33;;;14.60;99.90;;;;;;5047822;28;20674;-44
2021/12/31 00:14:43;;;;;;;6.57;3.53;;;14.60;99.90;;;;;;5046549;28;20123;-44
2021/12/31 00:17:08;;;;;;;5.05;3.55;;;14.50;99.90;;;;;;5046734;28;20476;-44
2021/12/31 00:19:40;;;;;;;5.65;3.30;;;14.60;99.90;;;;;;5047264;28;20032;-43
2021/12/31 00:22:34;;;;;;;8.25;3.45;;;14.60;99.90;;;;;;5046408;28;20028;-42
2021/12/31 00:24:52;;;;;;;4.57;2.90;;;14.60;99.90;;;;;;5046980;28;20041;-44
2021/12/31 00:27:18;;;;;;;6.85;3.67;;;14.60;99.90;;;;;;5047319;28;20112;-44
2021/12/31 00:29:44;;;;;;;5.82;3.35;;;14.60;99.90;;;;;;5046486;28;20120;-45
2021/12/31 00:32:09;;;;;;;5.55;2.92;;;14.60;99.90;;;;;;5046762;28;20481;-43
2021/12/31 00:34:35;;;;;;;6.60;2.80;;;14.60;99.90;;;;;;5046963;28;20033;-43
2021/12/31 00:37:01;;;;;;;4.90;2.65;;;14.60;99.90;;;;;;5046541;28;20160;-43
2021/12/31 00:39:26;;;;;;;4.80;2.63;;;14.60;99.90;;;;;;5046763;28;20025;-43
2021/12/31 00:41:52;;;;;;;5.97;2.80;;;14.70;99.90;;;;;;5046704;28;20024;-43
2021/12/31 00:44:17;;;;;;;4.88;2.47;;;14.60;99.90;;;;;;5046297;28;20021;-44
2021/12/31 00:46:43;;;;;;;3.72;2.40;;;14.60;99.90;;;;;;5046808;28;20486;-44
2021/12/31 00:49:09;;;;;;;5.47;3.05;;;14.60;99.90;;;;;;5046640;28;20087;-44
2021/12/31 00:51:35;;;;;;;6.13;3.00;;;14.60;99.90;;;;;;5048418;28;20032;-44
2021/12/31 00:54:00;;;;;;;5.10;2.60;;;14.60;99.90;;;;;;5050440;28;20025;-43
2021/12/31 00:56:26;;;;;;;9.32;2.72;;;14.70;99.90;;;;;;5050361;28;20021;-44
2021/12/31 00:58:52;;;;;;;3.80;2.47;;;14.70;99.90;;;;;;5049507;28;20040;-43
2021/12/31 01:01:20;;;;;;;5.38;2.25;;;14.70;99.90;;;;;;5050552;28;20139;-43
2021/12/31 01:03:47;;;;;;;5.10;2.55;;;14.70;99.90;;;;;;5049388;28;20119;-43
2021/12/31 01:06:13;;;;;;;5.38;2.15;;;14.70;99.90;;;;;;5050568;28;20032;-43
2021/12/31 01:08:39;;;;;;;4.65;2.40;;;14.70;99.90;;;;;;5049914;28;20385;-43
2021/12/31 01:11:05;;;;;;;8.85;2.63;;;14.60;99.90;;;;;;5049807;28;20032;-45
2021/12/31 01:13:47;;;;;;;4.43;2.40;;;14.60;99.90;;;;;;5050026;28;20017;-43
2021/12/31 01:16:12;;;;;;;7.17;2.30;;;14.60;99.90;;;;;;5050614;28;20085;-42
2021/12/31 01:21:20;;;;;;;6.85;2.25;;;14.60;99.90;;;;;;5050324;28;20064;-44
2021/12/31 01:23:46;;;;;;;2.95;1.90;;;14.60;99.90;;;;;;5049245;28;20037;-44
2021/12/31 01:26:12;;;;;;;4.13;2.22;;;14.60;99.90;;;;;;5050084;28;20028;-44
2021/12/31 01:28:38;;;;;;;5.35;2.55;;;14.60;99.90;;;;;;5049671;28;20029;-43
2021/12/31 01:31:04;;;;;;;7.13;2.45;;;14.60;99.90;;;;;;5050162;28;20181;-43
2021/12/31 01:33:29;;;;;;;4.03;1.85;;;14.60;99.90;;;;;;5048675;28;20366;-43
2021/12/31 01:35:55;;;;;;;2.65;2.20;;;14.60;99.90;;;;;;5049552;28;20013;-43
2021/12/31 01:38:20;;;;;;;4.40;1.88;;;14.60;99.90;;;;;;5050458;28;20492;-44
2021/12/31 01:40:47;;;;;;;3.92;1.90;;;14.60;99.90;;;;;;5048597;28;20025;-43
2021/12/31 01:43:13;;;;;;;3.33;1.77;;;14.60;99.90;;;;;;5050084;28;20120;-44
2021/12/31 01:45:54;;;;;;;3.78;2.15;;;14.60;99.90;;;;;;5049359;28;20108;-44
2021/12/31 01:48:36;;;;;;;4.15;2.10;;;14.60;99.90;;;;;;5029578;28;20840;-43
2021/12/31 01:51:07;;;;;;;5.13;2.03;;;14.60;99.90;;;;;;5046749;28;20615;-44
2021/12/31 01:53:33;;;;;;;6.53;2.10;;;14.50;99.90;;;;;;5049219;28;20064;-43
2021/12/31 01:56:01;;;;;;;5.60;2.85;;;14.50;99.90;;;;;;5048786;28;20052;-44
2021/12/31 01:58:27;;;;;;;4.80;1.98;;;14.60;99.90;;;;;;5048775;28;20498;-44
2021/12/31 02:00:54;;;;;;;4.35;1.92;;;14.60;99.90;;;;;;5048597;28;20805;-43
2021/12/31 02:03:21;;;;;;;4.90;2.08;;;14.60;99.90;;;;;;5048581;28;20350;-44
2021/12/31 02:05:47;;;;;;;4.85;2.35;;;14.60;99.90;;;;;;5048537;28;20407;-43
2021/12/31 02:08:13;;;;;;;6.03;2.13;;;14.60;99.90;;;;;;5049163;28;20056;-45
2021/12/31 02:10:38;;;;;;;4.03;2.00;;;14.60;99.90;;;;;;5048709;28;20017;-44
2021/12/31 02:13:04;;;;;;;3.22;1.83;;;14.60;99.90;;;;;;5048998;28;20025;-44
2021/12/31 02:15:32;;;;;;;5.32;2.03;;;14.60;99.90;;;;;;5048098;28;20013;-43
2021/12/31 02:17:59;;;;;;;3.65;1.85;;;14.60;99.90;;;;;;5048921;28;20805;-43
2021/12/31 02:20:40;;;;;;;3.70;1.90;;;14.60;99.90;;;;;;5048660;28;20021;-44
2021/12/31 02:23:07;;;;;;;3.95;1.90;;;14.60;99.90;;;;;;5037526;28;20024;-43
2021/12/31 02:25:36;;;;;;;3.28;1.60;;;14.60;99.90;;;;;;5049172;28;20029;-44
2021/12/31 02:28:02;;;;;;;3.00;1.50;;;14.60;99.90;;;;;;5048450;28;20056;-44
2021/12/31 02:30:29;;;;;;;2.65;1.70;;;14.60;99.90;;;;;;5047793;28;20029;-44
2021/12/31 02:32:55;;;;;;;4.72;1.80;;;14.60;99.90;;;;;;5048898;28;20381;-44
2021/12/31 02:35:21;;;;;;;3.20;1.73;;;14.60;99.90;;;;;;5048008;28;20025;-44
2021/12/31 02:37:46;;;;;;;4.90;1.77;;;14.60;99.90;;;;;;5047760;28;20032;-44
2021/12/31 02:40:14;;;;;;;3.88;1.98;;;14.60;99.90;;;;;;5049054;28;20025;-44
2021/12/31 02:42:41;;;;;;;2.83;1.70;;;14.70;99.90;;;;;;5047666;28;20021;-43
2021/12/31 02:45:08;;;;;;;4.50;1.60;;;14.70;99.90;;;;;;5048521;28;20025;-43
2021/12/31 02:47:34;;;;;;;2.22;1.50;;;14.70;99.90;;;;;;5048339;28;20052;-43
2021/12/31 02:50:04;;;;;;;5.65;1.95;;;14.70;99.90;;;;;;5047376;28;20076;-43
2021/12/31 02:52:30;;;;;;;3.10;1.70;;;14.70;99.90;;;;;;5048227;28;20024;-44
2021/12/31 02:54:57;;;;;;;2.05;1.40;;;14.70;99.90;;;;;;5048312;28;20014;-44
2021/12/31 02:57:23;;;;;;;3.83;1.80;;;14.70;99.90;;;;;;5047171;28;20032;-43
2021/12/31 02:59:49;;;;;;;5.28;1.77;;;14.70;99.90;;;;;;5048130;28;20021;-44
2021/12/31 03:02:20;;;;;;;3.22;1.40;;;14.70;99.90;;;;;;5048548;28;20025;-44
2021/12/31 03:04:46;;;;;;;4.15;1.73;;;14.70;99.90;;;;;;5047205;28;20056;-44
2021/12/31 03:07:12;;;;;;;4.20;2.08;;;14.70;99.90;;;;;;5048469;28;20021;-43
2021/12/31 03:09:43;;;;;;;3.30;1.60;;;14.70;99.90;;;;;;5047989;28;20025;-43
2021/12/31 03:12:10;;;;;;;5.95;2.10;;;14.70;99.90;;;;;;5047030;28;20468;-43
2021/12/31 03:14:39;;;;;;;2.75;1.60;;;14.70;99.90;;;;;;5048066;28;20384;-42
2021/12/31 03:17:06;;;;;;;3.17;1.75;;;14.70;99.90;;;;;;5047739;28;20025;-43
2021/12/31 03:19:32;;;;;;;2.90;1.38;;;14.60;99.90;;;;;;5047108;28;20028;-44
2021/12/31 03:21:57;;;;;;;2.13;1.58;;;14.70;99.90;;;;;;5047532;28;20116;-44
2021/12/31 03:24:23;;;;;;;3.67;1.70;;;14.70;99.90;;;;;;5046731;28;20378;-43
2021/12/31 03:26:48;;;;;;;4.03;1.40;;;14.60;99.90;;;;;;5047440;28;20028;-44
2021/12/31 03:29:14;;;;;;;5.10;2.00;;;14.60;99.90;;;;;;5047402;28;20043;-44
2021/12/31 03:31:39;;;;;;;2.08;1.40;;;14.60;99.90;;;;;;5047465;28;20036;-43
2021/12/31 03:34:05;;;;;;;2.47;1.15;;;14.60;99.90;;;;;;5047143;28;20033;-44
2021/12/31 03:36:30;;;;;;;4.18;1.63;;;14.60;99.90;;;;;;5047799;28;20518;-44
2021/12/31 03:38:56;;;;;;;2.85;1.55;;;14.60;99.90;;;;;;5047037;28;20029;-43
2021/12/31 03:41:21;;;;;;;2.47;1.38;;;14.60;99.90;;;;;;5047989;28;20025;-43
2021/12/31 03:43:47;;;;;;;4.45;1.75;;;14.60;99.90;;;;;;5046919;28;20447;-44
2021/12/31 03:46:12;;;;;;;3.90;1.80;;;14.60;99.90;;;;;;5046935;28;20176;-43
2021/12/31 03:48:38;;;;;;;5.00;1.65;;;14.60;99.90;;;;;;5047147;28;20114;-44
2021/12/31 03:51:03;;;;;;;3.97;1.60;;;14.60;99.90;;;;;;5047309;28;20029;-43
2021/12/31 03:53:29;;;;;;;2.25;1.40;;;14.60;99.90;;;;;;5046654;28;20527;-44
2021/12/31 03:55:54;;;;;;;3.55;1.80;;;14.60;99.90;;;;;;5047832;28;20381;-43
2021/12/31 03:58:20;;;;;;;4.22;1.80;;;14.60;99.90;;;;;;5047500;28;20208;-43
2021/12/31 04:00:46;;;;;;;3.83;1.73;;;14.60;99.90;;;;;;5046470;28;20503;-43
2021/12/31 04:03:12;;;;;;;5.05;1.75;;;14.70;99.90;;;;;;5047775;28;20029;-43
2021/12/31 04:05:40;;;;;;;3.30;2.08;;;14.60;99.90;;;;;;5047295;28;20036;-43
2021/12/31 04:08:06;;;;;;;3.78;1.40;;;14.60;99.90;;;;;;5047098;28;20025;-44
2021/12/31 04:10:32;;;;;;;4.05;1.90;;;14.60;99.90;;;;;;5047031;28;20029;-44
2021/12/31 04:12:58;;;;;;;3.22;1.50;;;14.60;99.90;;;;;;5047205;28;20111;-44
2021/12/31 04:15:24;;;;;;;3.92;1.85;;;14.60;99.90;;;;;;5046525;28;20068;-44
2021/12/31 04:17:50;;;;;;;3.85;1.60;;;14.60;99.90;;;;;;5046988;28;20061;-43
2021/12/31 04:20:58;;;;;;;3.47;1.40;;;14.60;99.90;;;;;;5047185;28;20122;-43
2021/12/31 04:23:14;;;;;;;3.25;1.40;;;14.60;99.90;;;;;;5046321;28;20040;-43
2021/12/31 04:25:43;;;;;;;2.90;1.65;;;14.60;99.90;;;;;;5047307;28;20477;-43
2021/12/31 04:28:09;;;;;;;3.63;1.60;;;14.60;99.90;;;;;;5050458;28;20036;-43
2021/12/31 04:30:34;;;;;;;4.70;1.90;;;14.60;99.90;;;;;;5050833;28;20121;-43
2021/12/31 04:33:01;;;;;;;3.13;1.83;;;14.60;99.90;;;;;;5051329;28;20021;-43
2021/12/31 04:35:26;;;;;;;3.58;1.98;;;14.60;99.90;;;;;;5049886;28;20021;-44
2021/12/31 04:37:52;;;;;;;3.28;1.85;;;14.60;99.90;;;;;;5050942;28;20043;-43
2021/12/31 04:40:17;;;;;;;3.38;1.67;;;14.60;99.90;;;;;;5051283;28;20016;-44
2021/12/31 04:42:44;;;;;;;3.88;2.00;;;14.60;99.90;;;;;;5050222;28;20036;-44
2021/12/31 04:45:12;;;;;;;2.25;1.60;;;14.60;99.90;;;;;;5050262;28;20472;-44
2021/12/31 04:47:37;;;;;;;2.67;1.65;;;14.60;99.90;;;;;;5050317;28;20079;-44
2021/12/31 04:50:04;;;;;;;3.78;1.70;;;14.60;99.90;;;;;;5049581;28;20057;-43
2021/12/31 04:52:30;;;;;;;3.30;1.70;;;14.60;99.90;;;;;;5050323;28;20039;-44
2021/12/31 04:54:55;;;;;;;2.92;1.52;;;14.60;99.90;;;;;;5050707;28;20035;-44
2021/12/31 04:57:24;;;;;;;4.97;1.92;;;14.60;99.90;;;;;;5050155;28;20047;-43
2021/12/31 04:59:49;;;;;;;6.32;2.10;;;14.60;99.90;;;;;;5050390;28;20033;-44
2021/12/31 05:02:15;;;;;;;3.80;2.33;;;14.60;99.90;;;;;;5050757;28;20025;-44
2021/12/31 05:04:40;;;;;;;3.55;2.00;;;14.60;99.90;;;;;;5049745;28;20036;-43
2021/12/31 05:07:06;;;;;;;3.03;1.70;;;14.60;99.90;;;;;;5050554;28;20565;-43
2021/12/31 05:09:31;;;;;;;6.95;2.15;;;14.60;99.90;;;;;;5049988;28;20071;-43
2021/12/31 05:11:57;;;;;;;5.22;1.90;;;14.60;99.90;;;;;;5049108;28;20468;-43
2021/12/31 05:14:23;;;;;;;3.13;1.75;;;14.50;99.90;;;;;;5050249;28;20829;-43
2021/12/31 05:16:48;;;;;;;2.70;1.80;;;14.60;99.90;;;;;;5049723;28;20028;-43
2021/12/31 05:19:14;;;;;;;3.90;1.90;;;14.60;99.90;;;;;;5049535;28;20027;-44
2021/12/31 05:21:39;;;;;;;3.47;2.35;;;14.60;99.90;;;;;;5050009;28;20131;-43
2021/12/31 05:24:05;;;;;;;5.07;1.83;;;14.50;99.90;;;;;;5048995;28;20049;-43
2021/12/31 05:26:30;;;;;;;4.28;2.10;;;14.50;99.90;;;;;;5049855;28;20063;-44
2021/12/31 05:28:56;;;;;;;3.70;2.10;;;14.50;99.90;;;;;;5050237;28;20029;-44
2021/12/31 05:31:21;;;;;;;4.80;1.98;;;14.50;99.90;;;;;;5049480;28;20100;-43
2021/12/31 05:33:47;;;;;;;4.15;2.17;;;14.50;99.90;;;;;;5048103;28;20104;-44
2021/12/31 05:36:13;;;;;;;3.25;1.83;;;14.50;99.90;;;;;;5050393;28;20040;-43
2021/12/31 05:38:38;;;;;;;3.67;1.77;;;14.50;99.90;;;;;;5048573;28;20025;-43
2021/12/31 05:41:05;;;;;;;5.20;2.10;;;14.50;99.90;;;;;;5049849;28;20032;-44
2021/12/31 05:43:30;;;;;;;5.95;2.10;;;14.50;99.90;;;;;;5049847;28;20032;-44
2021/12/31 05:45:56;;;;;;;4.88;2.10;;;14.50;99.90;;;;;;5048691;28;20029;-43
2021/12/31 05:48:21;;;;;;;3.78;1.70;;;14.50;99.90;;;;;;5049357;28;20047;-43
2021/12/31 05:50:47;;;;;;;3.75;2.13;;;14.50;99.90;;;;;;5049704;28;20464;-44
2021/12/31 05:53:12;;;;;;;4.68;2.38;;;14.50;99.90;;;;;;5048890;28;20045;-44
2021/12/31 05:55:38;;;;;;;4.35;2.00;;;14.50;99.90;;;;;;5049810;28;20102;-43
2021/12/31 05:58:03;;;;;;;3.45;2.30;;;14.50;99.90;;;;;;5049759;28;20414;-43
2021/12/31 06:00:29;;;;;;;3.80;2.15;;;14.40;99.90;;;;;;5048610;28;20021;-44
2021/12/31 06:02:58;;;;;;;3.67;2.10;;;14.40;99.90;;;;;;5049035;28;20017;-43
2021/12/31 06:05:25;;;;;;;2.90;2.13;;;14.40;99.90;;;;;;5049506;28;20045;-43
2021/12/31 06:07:52;;;;;;;5.25;2.35;;;14.40;99.90;;;;;;5048066;28;20511;-43
2021/12/31 06:10:17;;;;;;;3.25;2.10;;;14.40;99.90;;;;;;5049709;28;20112;-44
2021/12/31 06:12:43;;;;;;;5.22;2.10;;;14.40;99.90;;;;;;5049048;28;20457;-44
2021/12/31 06:15:10;;;;;;;3.78;1.98;;;14.40;99.90;;;;;;5048350;28;20432;-44
2021/12/31 06:17:36;;;;;;;3.30;2.03;;;14.40;99.90;;;;;;5048850;28;20392;-44
2021/12/31 06:20:04;;;;;;;3.17;2.08;;;14.40;99.90;;;;;;5048946;28;20028;-44
2021/12/31 06:22:31;;;;;;;4.35;2.25;;;14.40;99.90;;;;;;5048436;28;20388;-43
2021/12/31 06:24:57;;;;;;;3.95;1.88;;;14.40;99.90;;;;;;5048543;28;20033;-43
2021/12/31 06:27:22;;;;;;;3.08;1.80;;;14.40;99.90;;;;;;5048760;28;20025;-44
2021/12/31 06:29:48;;;;;;;3.30;1.95;;;14.40;99.90;;;;;;5048603;28;20035;-44
2021/12/31 06:32:14;;;;;;;5.68;2.15;;;14.40;99.90;;;;;;5048741;28;20045;-44
2021/12/31 06:34:39;;;;;;;4.60;2.00;;;14.40;99.90;;;;;;5048294;28;20614;-45
2021/12/31 06:37:04;;;;;;;4.07;2.22;;;14.40;99.90;;;;;;5048380;28;20448;-43
2021/12/31 06:39:30;;;;;;;2.90;2.00;;;14.30;99.90;;;;;;5048479;28;20025;-44
2021/12/31 06:41:56;;;;;;;2.60;2.00;;;14.30;99.90;;;;;;5048425;28;20025;-44
2021/12/31 06:44:21;;;;;;;2.10;1.90;;;14.20;99.90;;;;;;5048332;28;20063;-44
2021/12/31 06:46:47;;;;;;;4.05;2.40;;;14.10;99.90;;;;;;5048473;28;20021;-43
2021/12/31 06:49:13;;;;;;;6.20;2.35;;;14.10;99.90;;;;;;5046801;28;20642;-44
2021/12/31 06:51:38;;;;;;;4.32;2.15;;;14.00;99.90;;;;;;5048739;28;20017;-43
2021/12/31 06:54:04;;;;;;;5.47;2.30;;;14.00;99.90;;;;;;5048709;28;20488;-43
2021/12/31 06:56:30;;;;;;;8.13;2.70;;;14.00;99.90;;;;;;5047754;28;20091;-44
2021/12/31 06:58:55;;;;;;;6.18;2.50;;;13.90;99.90;;;;;;5048225;28;20487;-44
2021/12/31 07:01:21;;;;;;;4.07;2.17;;;13.80;99.90;;;;;;5048301;28;20465;-45
2021/12/31 07:03:46;;;;;;;2.88;2.47;;;13.80;99.90;;;;;;5047076;28;20415;-43
2021/12/31 07:06:12;;;;;;;3.60;2.15;;;13.70;99.90;;;;;;5048578;28;20037;-43
2021/12/31 07:08:38;;;;;;;3.33;1.77;;;13.70;99.90;;;;;;5048190;28;20477;-44
2021/12/31 07:11:04;;;;;;;5.35;2.30;;;13.60;99.90;;;;;;5047470;28;20028;-43
2021/12/31 07:13:30;;;;;;;5.63;2.33;;;13.60;99.90;;;;;;5048084;28;20041;-45
2021/12/31 07:15:55;;;;;;;2.55;2.08;;;13.60;99.90;;;;;;5047628;28;20021;-44
2021/12/31 07:18:22;;;;;;;5.18;2.08;;;13.60;99.90;;;;;;5047917;28;20375;-44
2021/12/31 07:20:49;;;;;;;2.65;1.98;;;13.50;99.90;;;;;;5047641;28;20025;-43
2021/12/31 07:23:18;;;;;;;3.17;2.30;;;13.50;99.90;;;;;;5048218;28;20029;-43
2021/12/31 07:25:44;;;;;;;4.63;2.60;;;13.50;99.90;;;;;;5046843;28;20408;-44
2021/12/31 07:28:14;;;;;;;4.35;2.10;;;13.40;99.90;;;;;;5047445;28;20028;-43
2021/12/31 07:30:40;;;;;;;6.10;3.20;;;13.50;99.90;;;;;;5047598;28;20033;-45
2021/12/31 07:33:12;;;;;;;3.33;2.00;;;13.50;99.90;;;;;;5047678;28;20253;-44
2021/12/31 07:35:38;;;;;;;;;;;13.40;99.90;;;;;;5048105;28;20032;-44
2021/12/31 07:38:03;;;;;;;4.47;2.65;;;13.40;99.90;;;;;;5046721;28;19905;-43
2021/12/31 07:40:39;;;;;;;3.72;2.10;;;13.40;99.90;;;;;;5047500;28;20029;-44
2021/12/31 07:43:09;;;;;;;3.75;2.28;;;13.30;99.90;;;;;;5047649;28;20152;-44
2021/12/31 07:45:35;;;;;;;5.38;2.33;;;13.30;99.90;;;;;;5047241;28;20370;-44
2021/12/31 07:48:02;;;;;;;4.20;3.00;;;13.30;99.90;;;;;;5047431;28;20025;-44
2021/12/31 07:50:29;;;;;;;2.95;2.28;;;13.30;99.90;;;;;;5047686;28;20033;-43
2021/12/31 07:52:54;;;;;;;3.05;2.13;;;13.30;99.90;;;;;;5046569;28;20033;-44
2021/12/31 07:55:20;;;;;;;4.47;2.60;;;13.30;99.90;;;;;;5047729;28;20163;-44
2021/12/31 07:57:45;;;;;;;4.80;2.80;;;13.30;99.90;;;;;;5047333;28;20464;-44
2021/12/31 08:00:11;;;;;;;3.17;2.25;;;13.30;99.90;;;;;;5046911;28;20029;-43
2021/12/31 08:02:37;;;;;;;4.60;2.20;;;13.30;99.90;;;;;;5051046;28;20027;-43
2021/12/31 08:05:03;;;;;;;4.30;2.65;;;13.30;99.90;;;;;;5051614;28;20040;-43
2021/12/31 08:07:29;;;;;;;4.40;2.10;;;13.30;99.90;;;;;;5050399;28;20017;-43
2021/12/31 08:09:54;;;;;;;3.80;2.10;;;13.20;99.90;;;;;;5051479;28;20105;-43
2021/12/31 08:12:19;;;;;;;5.00;2.88;;;13.20;99.90;;;;;;5052069;28;20032;-43
2021/12/31 08:14:45;;;;;;;4.63;2.85;;;13.20;99.90;;;;;;5050371;28;20468;-43
2021/12/31 08:17:11;;;;;;;3.83;2.25;;;13.20;99.90;;;;;;5051657;28;20028;-44
2021/12/31 08:19:36;;;;;;;2.95;2.45;;;13.20;99.90;;;;;;5051588;28;20024;-44
2021/12/31 08:22:02;;;;;;;4.03;2.50;;;13.20;99.90;;;;;;5050620;28;20035;-43
2021/12/31 08:24:28;;;;;;;2.75;2.10;;;13.20;99.90;;;;;;5050746;28;20021;-43
2021/12/31 08:26:53;;;;;;;2.60;2.22;;;13.20;99.90;;;;;;5050744;28;20060;-42
2021/12/31 08:29:19;;;;;;;4.07;2.00;;;13.20;99.90;;;;;;5050946;28;20028;-43
2021/12/31 08:31:44;;;;;;;4.90;2.28;;;13.20;99.90;;;;;;5051120;28;20491;-43
2021/12/31 08:34:11;;;;;;;3.75;2.20;;;13.20;99.90;;;;;;5050500;28;20033;-43
2021/12/31 08:36:37;;;;;;;5.07;2.42;;;13.20;99.90;;;;;;5051110;28;20021;-44
2021/12/31 08:39:05;;;;;;;3.72;2.15;;;13.20;99.90;;;;;;5050717;28;20116;-43
2021/12/31 08:41:31;;;;;;;3.55;2.30;;;13.20;99.90;;;;;;5050450;28;20090;-43
2021/12/31 08:43:57;;;;;;;3.35;2.60;;;13.20;99.90;;;;;;5050787;28;20035;-43
2021/12/31 08:46:22;;;;;;;4.85;2.70;;;13.30;99.90;;;;;;5051444;28;20022;-43
2021/12/31 08:48:49;;;;;;;5.03;2.17;;;13.20;99.90;;;;;;5049686;28;20059;-44
2021/12/31 08:51:14;;;;;;;6.50;2.60;;;13.20;99.90;;;;;;5050782;28;20029;-43
2021/12/31 08:53:40;;;;;;;6.53;2.75;;;13.20;99.90;;;;;;5050539;28;20104;-43
2021/12/31 08:56:05;;;;;;;4.20;2.60;;;13.20;99.90;;;;;;5049960;28;20036;-44
2021/12/31 08:58:32;;;;;;;3.72;2.20;;;13.20;99.90;;;;;;5050703;28;20013;-44
2021/12/31 09:00:57;;;;;;;6.38;3.25;;;13.20;99.90;;;;;;5050769;28;20018;-43
2021/12/31 09:03:23;;;;;;;5.00;2.60;;;13.20;99.90;;;;;;5049287;28;20561;-43
2021/12/31 09:05:48;;;;;;;2.95;2.35;;;13.20;99.90;;;;;;5049985;28;20107;-43
2021/12/31 09:08:15;;;;;;;3.50;2.17;;;13.20;99.90;;;;;;5051067;28;20052;-44
2021/12/31 09:10:40;;;;;;;4.20;2.40;;;13.30;99.90;;;;;;5049515;28;20025;-43
2021/12/31 09:13:06;;;;;;;3.95;2.30;;;13.30;99.90;;;;;;5050017;28;20090;-43
2021/12/31 09:15:31;;;;;;;5.38;2.50;;;13.30;99.90;;;;;;5050012;28;20021;-43
2021/12/31 09:17:57;;;;;;;3.45;2.20;;;13.40;99.90;;;;;;5049731;28;20125;-44
2021/12/31 09:20:23;;;;;;;4.03;2.50;;;13.40;99.90;;;;;;5050140;28;20027;-43
2021/12/31 09:22:48;;;;;;;6.07;2.90;;;13.40;99.90;;;;;;5050252;28;20107;-43
2021/12/31 09:25:15;;;;;;;3.33;2.20;;;13.40;99.90;;;;;;5050074;28;20029;-43
2021/12/31 09:27:41;;;;;;;4.60;2.40;;;13.40;99.90;;;;;;5049844;28;20025;-43
2021/12/31 09:30:08;;;;;;;4.47;2.47;;;13.40;99.90;;;;;;5048873;28;20108;-43
2021/12/31 09:32:34;;;;;;;3.35;2.10;;;13.40;99.90;;;;;;5049981;28;20033;-44
2021/12/31 09:35:00;;;;;;;2.28;1.83;;;13.40;99.90;;;;;;5050171;28;20036;-44
2021/12/31 09:37:25;;;;;;;3.38;2.90;;;13.40;99.90;;;;;;5049222;28;20013;-43
2021/12/31 09:39:51;;;;;;;4.00;2.33;;;13.40;99.90;;;;;;5050103;28;20107;-44
2021/12/31 09:42:16;;;;;;;3.28;2.25;;;13.50;99.90;;;;;;5049465;28;20108;-43
2021/12/31 09:44:47;;;;;;;4.90;2.90;;;13.50;99.90;;;;;;5049300;28;20033;-46
2021/12/31 09:47:13;;;;;;;4.07;3.20;;;13.50;99.90;;;;;;5049942;28;20389;-44
2021/12/31 09:49:39;;;;;;;4.97;3.00;;;13.40;99.90;;;;;;5049528;28;20053;-43
2021/12/31 09:52:09;;;;;;;8.63;6.72;;;13.50;99.90;;;;;;5048348;28;20025;-44
2021/12/31 09:54:35;;;;;;;7.68;5.38;;;13.50;99.90;;;;;;5049770;28;20025;-43
2021/12/31 09:57:02;;;;;;;5.45;3.78;;;13.60;99.90;;;;;;5049033;28;20040;-44
2021/12/31 09:59:28;;;;;;;5.10;3.33;;;13.60;99.90;;;;;;5048907;28;20025;-43
2021/12/31 10:01:55;;;;;;;3.95;2.60;;;13.70;99.90;;;;;;5049308;28;20021;-44
2021/12/31 10:04:22;;;;;;;4.00;2.85;;;13.80;99.90;;;;;;5049298;28;20426;-44
2021/12/31 10:07:07;;;;;;;2.95;2.20;;;13.80;99.90;;;;;;5047930;28;20440;-44
2021/12/31 10:09:40;;;;;;;3.38;2.45;;;13.90;99.90;;;;;;5049322;28;20029;-44
2021/12/31 10:12:06;;;;;;;4.20;2.38;;;13.90;99.90;;;;;;5049174;28;20475;-43
2021/12/31 10:14:37;;;;;;;2.20;1.98;;;13.90;99.90;;;;;;5047473;28;20029;-45
2021/12/31 10:17:04;;;;;;;3.25;2.20;;;13.80;99.90;;;;;;5048593;28;20094;-43
2021/12/31 10:19:29;;;;;;;3.92;2.22;;;13.80;99.90;;;;;;5048616;28;20033;-43
2021/12/31 10:21:56;;;;;;;2.60;1.85;;;13.80;99.90;;;;;;5048756;28;20032;-44
2021/12/31 10:24:26;;;;;;;4.55;2.25;;;13.90;99.90;;;;;;5047807;28;20055;-44
2021/12/31 10:26:57;;;;;;;2.72;1.92;;;13.80;99.90;;;;;;5048201;28;20020;-43
2021/12/31 10:29:23;;;;;;;3.65;2.20;;;13.80;99.90;;;;;;5048900;28;20032;-43
2021/12/31 10:31:51;;;;;;;3.10;2.20;;;13.80;99.90;;;;;;5048813;28;20027;-43
2021/12/31 10:34:37;;;;;;;3.83;2.35;;;13.80;99.90;;;;;;5048566;28;20021;-44
2021/12/31 10:37:14;;;;;;;4.50;2.60;;;13.80;99.90;;;;;;5048951;28;20033;-44
2021/12/31 10:39:40;;;;;;;4.13;2.00;;;13.80;99.90;;;;;;5037979;28;20013;-43
2021/12/31 10:42:08;;;;;;;4.28;2.05;;;13.80;99.90;;;;;;5047459;28;20260;-44
2021/12/31 10:44:44;;;;;;;2.53;2.20;;;13.80;99.90;;;;;;5048731;28;20634;-43
2021/12/31 10:47:18;;;;;;;4.30;2.15;;;13.90;99.90;;;;;;5048491;28;20032;-43
2021/12/31 10:50:19;;;;;;;3.08;2.20;;;13.90;99.90;;;;;;5047424;28;20060;-43
2021/12/31 10:52:57;;;;;;;8.85;4.38;;;13.90;99.90;;;;;;5048320;28;20053;-43
2021/12/31 10:55:34;;;;;;;4.38;2.70;;;14.00;99.90;;;;;;5047786;28;20029;-43
2021/12/31 10:58:01;;;;;;;5.57;2.60;;;14.00;99.90;;;;;;5048518;28;20013;-44
2021/12/31 11:00:30;;;;;;;3.13;2.42;;;14.00;99.90;;;;;;5048174;28;20027;-43
2021/12/31 11:02:57;;;;;;;4.18;2.70;;;14.10;99.90;;;;;;5047607;28;20009;-43
2021/12/31 11:05:23;;;;;;;3.55;2.90;;;14.00;99.90;;;;;;5048692;28;20039;-43
2021/12/31 11:07:50;;;;;;;4.10;2.50;;;14.10;99.90;;;;;;5047909;28;20033;-44
2021/12/31 11:10:18;;;;;;;3.38;2.58;;;14.00;99.90;;;;;;5047631;28;20017;-44
2021/12/31 11:12:47;;;;;;;3.75;2.63;;;14.00;99.90;;;;;;5048261;28;20810;-44
2021/12/31 11:15:14;;;;;;;4.70;2.92;;;14.00;99.90;;;;;;5047974;28;20020;-45
2021/12/31 11:17:40;;;;;;;3.13;2.47;;;14.00;99.90;;;;;;5047263;28;20017;-43
2021/12/31 11:20:07;;;;;;;4.35;2.40;;;14.00;99.90;;;;;;5047938;28;20481;-43
2021/12/31 11:22:33;;;;;;;3.63;2.38;;;14.00;99.90;;;;;;5047913;28;20060;-43
2021/12/31 11:25:18;;;;;;;3.22;2.20;;;14.00;99.90;;;;;;5046749;28;20064;-44
2021/12/31 11:27:47;;;;;;;3.65;2.50;;;14.10;99.90;;;;;;5027604;28;20108;-44
2021/12/31 11:30:31;;;;;;;3.72;2.22;;;14.10;99.90;;;;;;5043616;28;20025;-44
2021/12/31 11:33:17;;;;;;;3.20;2.15;;;14.20;99.90;;;;;;5028177;28;20029;-43
2021/12/31 11:35:46;;;;;;;3.47;2.10;;;14.20;99.90;;;;;;5046462;28;20039;-43
2021/12/31 11:38:37;;;;;;;3.97;2.45;;;14.30;99.90;;;;;;5047293;28;20372;-43
2021/12/31 11:41:14;;;;;;;3.67;2.30;;;14.30;99.90;;;;;;5047185;28;20086;-44
2021/12/31 11:43:43;;;;;;;4.60;2.83;;;14.40;99.90;;;;;;5047477;28;20025;-43
2021/12/31 11:46:09;;;;;;;4.50;2.38;;;14.40;99.90;;;;;;5047498;28;20485;-43
2021/12/31 11:48:47;;;;;;;3.42;2.40;;;14.40;99.90;;;;;;5047235;28;20040;-43
2021/12/31 11:51:17;;;;;;;4.25;2.30;;;14.40;99.90;;;;;;5047005;28;20036;-45
2021/12/31 11:54:01;;;;;;;3.58;2.33;;;14.40;99.90;;;;;;5047812;28;20489;-43
2021/12/31 11:56:47;;;;;;;4.60;2.67;;;14.30;99.90;;;;;;5046916;28;20036;-44
2021/12/31 11:59:16;;;;;;;3.45;2.55;;;14.20;99.90;;;;;;5046945;28;20754;-44
2021/12/31 12:01:52;;;;;;;4.60;3.20;;;14.20;99.90;;;;;;5047683;28;20079;-45
2021/12/31 12:04:23;;;;;;;4.80;3.63;;;14.40;99.90;;;;;;5047852;28;20106;-44
2021/12/31 12:06:55;;;;;;;5.25;4.10;;;14.50;99.90;;;;;;5046249;28;20067;-43
2021/12/31 12:09:22;;;;;;;6.95;5.07;;;14.60;99.90;;;;;;5047662;28;20078;-43
2021/12/31 12:12:16;;;;;;;6.57;5.32;;;14.60;99.90;;;;;;5047301;28;20128;-43
2021/12/31 12:14:53;;;;;;;10.55;6.60;;;14.60;99.90;;;;;;5047551;28;20028;-43
2021/12/31 12:17:33;;;;;;;12.85;7.80;;;14.50;99.90;;;;;;5045334;28;20467;-44
2021/12/31 12:20:02;;;;;;;11.95;6.25;;;14.50;99.90;;;;;;5046211;28;20104;-44
2021/12/31 12:22:51;;;;;;;6.40;4.50;;;14.50;99.90;;;;;;5047518;28;20021;-43
2021/12/31 12:25:25;;;;;;;6.63;3.60;;;14.50;99.90;;;;;;5047728;28;20068;-44
2021/12/31 12:27:56;;;;;;;5.55;3.00;;;14.60;99.90;;;;;;5043404;28;20100;-44
2021/12/31 12:30:23;;;;;;;6.03;3.00;;;14.60;99.90;;;;;;5047681;28;20029;-44
2021/12/31 12:35:16;;;;;;;5.40;2.92;;;14.50;99.90;;;;;;5046818;28;20063;-44
2021/12/31 12:38:12;;;;;;;5.30;2.90;;;14.60;99.90;;;;;;5046916;28;20649;-44
2021/12/31 12:40:39;;;;;;;4.70;2.50;;;14.60;99.90;;;;;;5045651;28;20045;-43
2021/12/31 12:43:11;;;;;;;5.05;2.90;;;14.70;99.90;;;;;;5047080;28;20021;-43
2021/12/31 12:45:37;;;;;;;;;;;14.80;99.90;;;;;;5047690;28;20122;-43
2021/12/31 12:48:03;;;;;;;3.60;2.75;;;14.90;99.90;;;;;;5048525;28;20094;-44
2021/12/31 12:50:29;;;;;;;4.47;2.63;;;14.80;99.90;;;;;;5051070;28;20471;-44
2021/12/31 12:52:55;;;;;;;5.00;3.15;;;14.90;99.90;;;;;;5050477;28;20542;-44
2021/12/31 12:55:22;;;;;;;4.35;2.53;;;14.90;99.90;;;;;;5049713;28;20557;-43